createdAt,value
2017-11-12T00:00:25.857Z,4.87
2017-11-12T00:02:54.143Z,6.37
2017-11-12T00:05:22.442Z,6.87
2017-11-12T00:07:50.923Z,7.70
2017-11-12T00:10:19.197Z,6.37
2017-11-12T00:12:47.465Z,5.23
2017-11-12T00:15:16.089Z,4.23
2017-11-12T00:17:44.353Z,5.97
2017-11-12T00:20:12.587Z,8.63
2017-11-12T00:22:41.612Z,9.00
2017-11-12T00:25:10.346Z,8.73
2017-11-12T00:27:38.894Z,8.70
2017-11-12T00:30:07.161Z,8.63
2017-11-12T00:32:35.397Z,6.70
2017-11-12T00:35:03.961Z,6.30
2017-11-12T00:37:32.328Z,6.73
2017-11-12T00:40:00.581Z,5.63
2017-11-12T00:42:28.842Z,4.80
2017-11-12T00:44:57.083Z,4.97
2017-11-12T00:47:25.716Z,11.50
2017-11-12T00:49:53.980Z,6.27
2017-11-12T00:52:22.232Z,6.50
2017-11-12T00:54:50.874Z,9.50
2017-11-12T00:57:19.121Z,6.90
2017-11-12T00:59:47.364Z,9.60
2017-11-12T01:02:15.735Z,16.13
2017-11-12T01:04:44.040Z,9.63
2017-11-12T01:07:12.289Z,5.50
2017-11-12T01:09:40.921Z,7.27
2017-11-12T01:12:09.197Z,8.13
2017-11-12T01:14:37.678Z,5.70
2017-11-12T01:17:05.909Z,6.70
2017-11-12T01:19:34.629Z,5.70
2017-11-12T01:22:02.870Z,6.40
2017-11-12T01:24:31.497Z,5.00
2017-11-12T01:26:59.772Z,5.30
2017-11-12T01:29:28.390Z,6.53
2017-11-12T01:31:56.632Z,7.73
2017-11-12T01:34:24.885Z,9.70
2017-11-12T01:36:53.123Z,5.93
2017-11-12T01:39:21.396Z,5.03
2017-11-12T01:41:49.628Z,8.30
2017-11-12T01:44:17.878Z,7.70
2017-11-12T01:46:46.554Z,7.70
2017-11-12T01:49:15.189Z,5.07
2017-11-12T01:51:43.422Z,5.50
2017-11-12T01:54:11.667Z,9.27
2017-11-12T01:56:39.914Z,6.30
2017-11-12T01:59:08.211Z,6.83
2017-11-12T02:01:36.451Z,6.83
2017-11-12T02:04:04.715Z,9.60
2017-11-12T02:06:32.985Z,5.90
2017-11-12T02:09:01.226Z,6.93
2017-11-12T02:11:29.455Z,5.90
2017-11-12T02:13:57.707Z,5.73
2017-11-12T02:16:25.954Z,6.73
2017-11-12T02:18:54.205Z,5.20
2017-11-12T02:21:22.465Z,7.90
2017-11-12T02:23:50.702Z,5.47
2017-11-12T02:26:18.950Z,5.33
2017-11-12T02:28:47.191Z,9.00
2017-11-12T02:31:15.425Z,6.33
2017-11-12T02:33:43.682Z,5.30
2017-11-12T02:36:11.953Z,5.20
2017-11-12T02:38:40.192Z,8.13
2017-11-12T02:41:08.425Z,6.60
2017-11-12T02:43:37.133Z,6.30
2017-11-12T02:46:05.366Z,5.10
2017-11-12T02:48:33.627Z,4.57
2017-11-12T02:51:01.911Z,5.90
2017-11-12T02:53:30.158Z,5.73
2017-11-12T02:55:58.404Z,8.10
2017-11-12T02:58:26.944Z,7.43
2017-11-12T03:00:55.185Z,7.87
2017-11-12T03:03:23.414Z,7.37
2017-11-12T03:05:52.049Z,7.00
2017-11-12T03:08:20.365Z,7.10
2017-11-12T03:10:49.441Z,14.37
2017-11-12T03:13:17.681Z,5.70
2017-11-12T03:15:45.929Z,7.13
2017-11-12T03:18:14.561Z,7.03
2017-11-12T03:20:42.808Z,6.00
2017-11-12T03:23:11.065Z,7.27
2017-11-12T03:25:39.723Z,10.03
2017-11-12T03:28:07.968Z,7.33
2017-11-12T03:30:36.223Z,8.37
2017-11-12T03:33:04.541Z,6.93
2017-11-12T03:35:32.767Z,9.27
2017-11-12T03:38:00.997Z,6.77
2017-11-12T03:40:29.258Z,8.27
2017-11-12T03:42:57.494Z,6.67
2017-11-12T03:45:25.742Z,6.37
2017-11-12T03:47:54.515Z,6.20
2017-11-12T03:50:22.763Z,5.43
2017-11-12T03:52:51.000Z,7.13
2017-11-12T03:55:19.365Z,5.57
2017-11-12T03:57:47.998Z,8.60
2017-11-12T04:00:16.227Z,6.90
2017-11-12T04:02:44.874Z,10.13
2017-11-12T04:05:13.115Z,8.43
2017-11-12T04:07:41.347Z,9.27
2017-11-12T04:10:09.633Z,8.07
2017-11-12T04:12:38.269Z,9.93
2017-11-12T04:15:06.515Z,6.63
2017-11-12T04:17:34.766Z,7.80
2017-11-12T04:20:03.401Z,7.90
2017-11-12T04:22:31.641Z,8.10
2017-11-12T04:25:00.379Z,7.37
2017-11-12T04:27:28.657Z,7.27
2017-11-12T04:29:56.893Z,8.40
2017-11-12T04:32:25.170Z,10.00
2017-11-12T04:34:53.411Z,10.80
2017-11-12T04:37:21.654Z,10.20
2017-11-12T04:39:50.145Z,8.00
2017-11-12T04:42:18.382Z,13.60
2017-11-12T04:44:46.654Z,9.33
2017-11-12T04:47:14.998Z,10.70
2017-11-12T04:49:43.617Z,8.47
2017-11-12T04:52:11.881Z,9.00
2017-11-12T04:54:40.138Z,10.67
2017-11-12T04:57:08.429Z,10.93
2017-11-12T04:59:36.972Z,11.00
2017-11-12T05:02:05.239Z,8.90
2017-11-12T05:04:33.483Z,7.50
2017-11-12T05:07:01.757Z,10.87
2017-11-12T05:09:30.014Z,9.60
2017-11-12T05:11:58.257Z,10.80
2017-11-12T05:14:26.511Z,8.93
2017-11-12T05:16:54.765Z,11.90
2017-11-12T05:19:23.018Z,15.50
2017-11-12T05:21:51.689Z,9.00
2017-11-12T05:24:19.913Z,9.90
2017-11-12T05:26:48.164Z,9.47
2017-11-12T05:29:16.409Z,11.73
2017-11-12T05:31:45.039Z,9.60
2017-11-12T05:34:13.336Z,9.40
2017-11-12T05:36:41.569Z,12.60
2017-11-12T05:39:09.813Z,10.70
2017-11-12T05:41:38.489Z,13.23
2017-11-12T05:44:06.745Z,8.53
2017-11-12T05:46:35.418Z,11.87
2017-11-12T05:49:03.685Z,11.53
2017-11-12T05:51:31.957Z,9.63
2017-11-12T05:54:00.196Z,12.20
2017-11-12T05:56:28.828Z,10.57
2017-11-12T05:58:57.080Z,11.30
2017-11-12T06:01:25.321Z,11.07
2017-11-12T06:03:53.554Z,8.17
2017-11-12T06:06:21.820Z,8.60
2017-11-12T06:08:50.085Z,10.00
2017-11-12T06:11:18.340Z,10.23
2017-11-12T06:13:47.039Z,12.20
2017-11-12T06:16:15.277Z,13.73
2017-11-12T06:18:43.533Z,13.57
2017-11-12T06:21:11.821Z,13.10
2017-11-12T06:23:40.077Z,12.57
2017-11-12T06:26:08.307Z,14.50
2017-11-12T06:28:36.582Z,10.93
2017-11-12T06:31:05.223Z,28.90
2017-11-12T06:33:33.510Z,11.60
2017-11-12T06:36:01.768Z,13.80
2017-11-12T06:38:29.990Z,9.27
2017-11-12T06:40:58.668Z,13.03
2017-11-12T06:43:27.297Z,11.20
2017-11-12T06:45:55.630Z,11.20
2017-11-12T06:48:24.283Z,12.17
2017-11-12T06:50:52.769Z,10.40
2017-11-12T06:53:22.070Z,10.60
2017-11-12T06:55:50.308Z,8.87
2017-11-12T06:58:18.549Z,10.60
2017-11-12T07:00:47.890Z,10.40
2017-11-12T07:03:16.123Z,12.83
2017-11-12T07:05:44.763Z,15.17
2017-11-12T07:08:13.012Z,11.53
2017-11-12T07:10:41.257Z,10.73
2017-11-12T07:13:09.510Z,10.60
2017-11-12T07:15:37.847Z,14.83
2017-11-12T07:18:06.088Z,12.40
2017-11-12T07:20:34.753Z,10.90
2017-11-12T07:23:03.006Z,10.97
2017-11-12T07:25:31.256Z,11.13
2017-11-12T07:27:59.507Z,9.83
2017-11-12T07:30:28.140Z,10.67
2017-11-12T07:32:56.374Z,12.33
2017-11-12T07:35:25.023Z,12.50
2017-11-12T07:37:53.258Z,8.27
2017-11-12T07:40:22.010Z,12.80
2017-11-12T07:42:50.299Z,10.13
2017-11-12T07:45:18.536Z,9.03
2017-11-12T07:47:46.815Z,8.40
2017-11-12T07:50:15.059Z,10.03
2017-11-12T07:52:43.306Z,9.00
2017-11-12T07:55:11.582Z,8.73
2017-11-12T07:57:39.822Z,7.20
2017-11-12T08:00:08.064Z,8.53
2017-11-12T08:02:36.344Z,12.00
2017-11-12T08:05:04.594Z,9.27
2017-11-12T08:07:33.115Z,9.40
2017-11-12T08:10:01.487Z,9.53
2017-11-12T08:12:29.727Z,10.03
2017-11-12T08:14:58.008Z,9.00
2017-11-12T08:17:26.530Z,8.40
2017-11-12T08:19:54.813Z,6.00
2017-11-12T08:22:23.065Z,9.17
2017-11-12T08:24:51.319Z,7.90
2017-11-12T08:27:19.602Z,11.50
2017-11-12T08:29:47.832Z,9.13
2017-11-12T08:32:16.685Z,8.90
2017-11-12T08:34:44.963Z,9.63
2017-11-12T08:37:13.470Z,7.47
2017-11-12T08:39:41.714Z,9.20
2017-11-12T08:42:09.972Z,14.87
2017-11-12T08:44:38.215Z,5.57
2017-11-12T08:47:06.490Z,7.67
2017-11-12T08:49:35.125Z,6.73
2017-11-12T08:52:03.386Z,8.33
2017-11-12T08:54:31.656Z,13.03
2017-11-12T08:56:59.902Z,9.93
2017-11-12T08:59:28.655Z,5.97
2017-11-12T09:01:56.937Z,6.73
2017-11-12T09:04:25.169Z,7.23
2017-11-12T09:06:54.134Z,4.73
2017-11-12T09:09:22.997Z,7.63
2017-11-12T09:11:51.309Z,8.60
2017-11-12T09:14:19.985Z,11.67
2017-11-12T09:16:48.669Z,7.00
2017-11-12T09:19:17.289Z,8.97
2017-11-12T09:21:45.870Z,6.63
2017-11-12T09:24:14.188Z,6.77
2017-11-12T09:26:42.425Z,7.60
2017-11-12T09:29:10.677Z,6.87
2017-11-12T09:31:39.320Z,6.37
2017-11-12T09:34:07.561Z,7.80
2017-11-12T09:36:35.802Z,6.03
2017-11-12T09:39:04.083Z,5.30
2017-11-12T09:41:32.359Z,5.57
2017-11-12T09:44:00.680Z,5.37
2017-11-12T09:46:28.976Z,8.60
2017-11-12T09:48:57.226Z,9.77
2017-11-12T09:51:25.740Z,7.83
2017-11-12T09:53:54.013Z,10.30
2017-11-12T09:56:22.270Z,5.00
2017-11-12T09:58:50.514Z,6.33
2017-11-12T10:01:18.806Z,5.70
2017-11-12T10:03:47.146Z,9.97
2017-11-12T10:06:15.888Z,10.40
2017-11-12T10:08:44.150Z,9.63
2017-11-12T10:11:12.401Z,9.60
2017-11-12T10:13:40.668Z,13.33
2017-11-12T10:16:09.746Z,15.87
2017-11-12T10:18:38.415Z,14.90
2017-11-12T10:21:06.806Z,14.00
2017-11-12T10:23:35.187Z,8.37
2017-11-12T10:26:03.858Z,10.63
2017-11-12T10:28:32.156Z,11.90
2017-11-12T10:31:00.785Z,10.23
2017-11-12T10:33:29.043Z,15.20
2017-11-12T10:35:57.303Z,9.40
2017-11-12T10:38:25.631Z,9.27
2017-11-12T10:40:54.036Z,7.67
2017-11-12T10:43:22.676Z,10.73
2017-11-12T10:45:51.392Z,8.63
2017-11-12T10:48:20.817Z,10.73
2017-11-12T10:50:49.453Z,6.43
2017-11-12T10:53:17.729Z,6.70
2017-11-12T10:55:46.086Z,6.17
2017-11-12T10:58:14.333Z,7.60
2017-11-12T11:00:42.974Z,6.63
2017-11-12T11:03:11.271Z,6.27
2017-11-12T11:05:39.927Z,7.20
2017-11-12T11:08:08.177Z,9.40
2017-11-12T11:10:36.466Z,5.50
2017-11-12T11:13:05.270Z,7.07
2017-11-12T11:15:33.528Z,3.77
2017-11-12T11:18:02.050Z,11.30
2017-11-12T11:20:30.330Z,7.07
2017-11-12T11:22:58.577Z,5.23
2017-11-12T11:25:27.223Z,4.93
2017-11-12T11:27:55.512Z,9.47
2017-11-12T11:30:23.770Z,5.37
2017-11-12T11:32:52.090Z,5.17
2017-11-12T11:35:20.353Z,8.00
2017-11-12T11:37:48.757Z,7.97
2017-11-12T11:40:17.100Z,6.40
2017-11-12T11:42:45.659Z,6.50
2017-11-12T11:45:13.920Z,7.20
2017-11-12T11:47:42.575Z,4.63
2017-11-12T11:50:10.819Z,7.40
2017-11-12T11:52:39.089Z,6.03
2017-11-12T11:55:07.378Z,6.77
2017-11-12T11:57:35.610Z,6.20
2017-11-12T12:00:03.897Z,4.00
2017-11-12T12:02:32.535Z,4.47
2017-11-12T12:05:00.777Z,7.40
2017-11-12T12:07:29.033Z,9.40
2017-11-12T12:09:57.691Z,5.27
2017-11-12T12:12:25.956Z,6.77
2017-11-12T12:14:54.207Z,5.23
2017-11-12T12:17:22.471Z,7.53
2017-11-12T12:19:50.721Z,4.40
2017-11-12T12:22:18.998Z,3.20
2017-11-12T12:24:47.280Z,6.90
2017-11-12T12:27:15.521Z,5.03
2017-11-12T12:29:43.794Z,6.03
2017-11-12T12:32:12.050Z,5.77
2017-11-12T12:34:40.287Z,7.07
2017-11-12T12:37:08.555Z,7.23
2017-11-12T12:39:37.287Z,6.10
2017-11-12T12:42:05.554Z,5.03
2017-11-12T12:44:33.792Z,5.73
2017-11-12T12:47:02.605Z,7.27
2017-11-12T12:49:30.853Z,5.77
2017-11-12T12:51:59.507Z,8.30
2017-11-12T12:54:27.785Z,6.13
2017-11-12T12:56:56.045Z,8.23
2017-11-12T12:59:24.303Z,5.67
2017-11-12T13:01:52.585Z,8.63
2017-11-12T13:04:20.871Z,11.13
2017-11-12T13:06:49.137Z,7.87
2017-11-12T13:09:17.450Z,9.27
2017-11-12T13:11:45.763Z,8.33
2017-11-12T13:14:14.001Z,5.50
2017-11-12T13:16:42.314Z,18.67
2017-11-12T13:19:10.597Z,44.43
2017-11-12T13:21:38.892Z,235.67
2017-11-12T13:24:07.154Z,153.83
2017-11-12T13:26:35.477Z,253.20
2017-11-12T13:29:03.927Z,74.50
2017-11-12T13:31:32.218Z,12.63
2017-11-12T13:34:00.504Z,195.87
2017-11-12T13:36:28.852Z,65.70
2017-11-12T13:38:57.122Z,48.97
2017-11-12T13:41:25.393Z,38.50
2017-11-12T13:43:53.669Z,44.37
2017-11-12T13:46:21.931Z,29.60
2017-11-12T13:48:50.188Z,26.37
2017-11-12T13:51:18.553Z,14.80
2017-11-12T13:53:46.951Z,20.90
2017-11-12T13:56:15.627Z,46.47
2017-11-12T13:58:43.873Z,18.23
2017-11-12T14:01:12.201Z,18.60
2017-11-12T14:03:40.533Z,18.60
2017-11-12T14:06:09.234Z,25.17
2017-11-12T14:08:37.533Z,18.60
2017-11-12T14:11:06.178Z,9.67
2017-11-12T14:13:34.421Z,19.03
2017-11-12T14:16:02.718Z,8.40
2017-11-12T14:18:32.105Z,17.13
2017-11-12T14:21:00.343Z,18.43
2017-11-12T14:23:28.996Z,12.43
2017-11-12T14:25:57.249Z,8.27
2017-11-12T14:28:25.515Z,7.80
2017-11-12T14:30:54.404Z,9.90
2017-11-12T14:33:22.642Z,10.37
2017-11-12T14:35:50.996Z,10.93
2017-11-12T14:38:19.225Z,9.77
2017-11-12T14:40:47.475Z,9.40
2017-11-12T14:43:16.143Z,10.73
2017-11-12T14:45:44.407Z,10.40
2017-11-12T14:48:12.677Z,8.40
2017-11-12T14:50:41.467Z,8.33
2017-11-12T14:53:09.755Z,7.43
2017-11-12T14:55:37.997Z,8.27
2017-11-12T14:58:07.029Z,11.33
2017-11-12T15:00:35.921Z,8.43
2017-11-12T15:03:04.559Z,9.50
2017-11-12T15:05:32.809Z,12.20
2017-11-12T15:08:01.131Z,5.47
2017-11-12T15:10:29.402Z,6.60
2017-11-12T15:12:57.695Z,8.30
2017-11-12T15:15:25.937Z,14.40
2017-11-12T15:17:54.251Z,9.00
2017-11-12T15:20:22.508Z,12.50
2017-11-12T15:22:50.741Z,7.73
2017-11-12T15:25:19.039Z,7.13
2017-11-12T15:27:47.293Z,12.87
2017-11-12T15:30:15.541Z,8.97
2017-11-12T15:32:43.808Z,10.77
2017-11-12T15:35:12.068Z,13.83
2017-11-12T15:37:40.394Z,8.17
2017-11-12T15:40:08.719Z,9.60
2017-11-12T15:42:36.992Z,10.73
2017-11-12T15:45:05.271Z,8.80
2017-11-12T15:47:33.567Z,12.73
2017-11-12T15:50:01.819Z,9.60
2017-11-12T15:52:30.107Z,10.63
2017-11-12T15:54:58.358Z,14.40
2017-11-12T15:57:26.629Z,10.47
2017-11-12T15:59:54.882Z,9.17
2017-11-12T16:02:23.422Z,10.83
2017-11-12T16:04:51.660Z,7.60
2017-11-12T16:07:20.029Z,9.47
2017-11-12T16:09:48.273Z,9.00
2017-11-12T16:12:17.254Z,14.07
2017-11-12T16:14:45.526Z,8.07
2017-11-12T16:17:13.776Z,8.57
2017-11-12T16:19:42.029Z,9.70
2017-11-12T16:22:10.269Z,8.97
2017-11-12T16:24:39.234Z,14.37
2017-11-12T16:27:07.574Z,13.77
2017-11-12T16:29:35.815Z,9.30
2017-11-12T16:32:04.511Z,10.70
2017-11-12T16:34:33.134Z,10.20
2017-11-12T16:37:01.392Z,17.53
2017-11-12T16:39:29.670Z,17.13
2017-11-12T16:41:57.952Z,15.97
2017-11-12T16:44:26.189Z,12.03
2017-11-12T16:46:55.057Z,8.30
2017-11-12T16:49:23.302Z,13.23
2017-11-12T16:51:51.542Z,13.70
2017-11-12T16:54:20.336Z,8.80
2017-11-12T16:56:48.589Z,10.90
2017-11-12T16:59:17.257Z,15.30
2017-11-12T17:01:45.513Z,17.53
2017-11-12T17:04:14.013Z,17.80
2017-11-12T17:06:43.157Z,17.20
2017-11-12T17:09:11.409Z,15.00
2017-11-12T17:11:40.055Z,16.30
2017-11-12T17:14:08.877Z,20.83
2017-11-12T17:16:37.538Z,18.83
2017-11-12T17:19:05.789Z,17.40
2017-11-12T17:21:34.485Z,17.90
2017-11-12T17:24:02.817Z,20.23
2017-11-12T17:26:31.465Z,18.90
2017-11-12T17:29:00.140Z,20.70
2017-11-12T17:31:28.404Z,25.37
2017-11-12T17:33:56.674Z,27.33
2017-11-12T17:36:24.963Z,26.93
2017-11-12T17:38:53.230Z,26.53
2017-11-12T17:41:21.510Z,26.50
2017-11-12T17:43:49.818Z,29.97
2017-11-12T17:46:18.476Z,24.00
2017-11-12T17:48:46.726Z,21.80
2017-11-12T17:51:15.408Z,27.03
2017-11-12T17:53:43.722Z,24.93
2017-11-12T17:56:12.482Z,24.00
2017-11-12T17:58:40.759Z,24.10
2017-11-12T18:01:09.030Z,27.63
2017-11-12T18:03:37.317Z,26.90
2017-11-12T18:06:05.610Z,26.53
2017-11-12T18:08:33.868Z,25.90
2017-11-12T18:11:02.479Z,23.03
2017-11-12T18:13:30.723Z,27.30
2017-11-12T18:15:59.695Z,24.93
2017-11-12T18:18:27.986Z,24.73
2017-11-12T18:20:56.310Z,21.83
2017-11-12T18:23:24.890Z,24.40
2017-11-12T18:25:53.200Z,43.77
2017-11-12T18:28:21.510Z,21.70
2017-11-12T18:30:49.978Z,23.03
2017-11-12T18:33:18.267Z,22.13
2017-11-12T18:35:46.559Z,19.33
2017-11-12T18:38:14.857Z,19.43
2017-11-12T18:40:43.163Z,19.90
2017-11-12T18:43:11.834Z,19.40
2017-11-12T18:45:40.561Z,21.13
2017-11-12T18:48:08.806Z,20.57
2017-11-12T18:50:37.920Z,20.70
2017-11-12T18:53:06.194Z,20.73
2017-11-12T18:55:37.911Z,22.17
2017-11-12T18:58:16.196Z,21.63
2017-11-12T19:00:45.650Z,21.47
2017-11-12T19:06:20.081Z,21.73
2017-11-12T19:08:48.489Z,24.70
2017-11-12T19:11:16.876Z,23.17
2017-11-12T19:13:45.273Z,19.23
2017-11-12T19:16:13.710Z,27.77
2017-11-12T19:18:42.669Z,20.20
2017-11-12T19:21:14.137Z,23.70
2017-11-12T19:23:43.102Z,25.00
2017-11-12T19:26:14.627Z,21.73
2017-11-12T19:28:53.904Z,25.03
2017-11-12T19:31:22.391Z,23.23
2017-11-12T19:33:51.265Z,23.40
2017-11-12T19:36:19.904Z,24.03
2017-11-12T19:38:48.621Z,25.67
2017-11-12T19:41:17.457Z,19.60
2017-11-12T19:43:46.803Z,25.43
2017-11-12T19:46:15.525Z,21.30
2017-11-12T19:48:44.442Z,27.93
2017-11-12T19:51:13.102Z,24.73
2017-11-12T19:53:41.734Z,23.40
2017-11-12T19:56:10.552Z,26.10
2017-11-12T19:58:39.305Z,19.37
2017-11-12T20:01:07.925Z,28.13
2017-11-12T20:03:37.156Z,26.73
2017-11-12T20:06:05.801Z,21.30
2017-11-12T20:08:34.673Z,22.20
2017-11-12T20:11:03.240Z,22.33
2017-11-12T20:13:31.841Z,26.00
2017-11-12T20:16:00.395Z,28.57
2017-11-12T20:18:29.358Z,24.63
2017-11-12T20:20:58.336Z,21.63
2017-11-12T20:23:26.812Z,19.57
2017-11-12T20:25:55.224Z,22.90
2017-11-12T20:28:23.619Z,24.50
2017-11-12T20:30:51.985Z,24.50
2017-11-12T20:33:20.302Z,24.23
2017-11-12T20:35:48.606Z,19.73
2017-11-12T20:38:16.894Z,17.90
2017-11-12T20:40:45.669Z,20.03
2017-11-12T20:43:13.965Z,18.33
2017-11-12T20:45:42.631Z,15.80
2017-11-12T20:48:10.902Z,12.73
2017-11-12T20:50:39.153Z,19.70
2017-11-12T20:53:07.425Z,17.30
2017-11-12T20:55:35.671Z,17.13
2017-11-12T20:58:04.335Z,18.10
2017-11-12T21:00:39.437Z,16.80
2017-11-12T21:03:07.686Z,24.80
2017-11-12T21:05:37.740Z,16.70
2017-11-12T21:08:06.056Z,25.57
2017-11-12T21:10:34.721Z,20.47
2017-11-12T21:13:03.471Z,24.40
2017-11-12T21:15:31.726Z,14.43
2017-11-12T21:17:59.983Z,14.50
2017-11-12T21:20:34.162Z,21.93
2017-11-12T21:23:08.196Z,19.83
2017-11-12T21:25:36.477Z,12.97
2017-11-12T21:28:08.225Z,21.90
2017-11-12T21:30:37.819Z,18.20
2017-11-12T21:33:21.855Z,19.67
2017-11-12T21:38:54.796Z,18.67
2017-11-12T21:41:23.453Z,17.10
2017-11-12T21:43:51.714Z,24.13
2017-11-12T21:46:19.957Z,24.87
2017-11-12T21:48:48.237Z,23.27
2017-11-12T21:51:16.504Z,28.00
2017-11-12T21:53:45.142Z,31.60
2017-11-12T21:56:13.384Z,24.70
2017-11-12T21:58:41.655Z,22.00
2017-11-12T22:01:09.890Z,28.90
2017-11-12T22:03:38.556Z,26.70
2017-11-12T22:06:06.883Z,22.53
2017-11-12T22:08:35.109Z,22.40
2017-11-12T22:11:03.350Z,23.73
2017-11-12T22:13:31.600Z,23.67
2017-11-12T22:15:59.843Z,27.07
2017-11-12T22:18:28.605Z,23.77
2017-11-12T22:20:56.920Z,24.27
2017-11-12T22:23:25.194Z,25.10
2017-11-12T22:25:53.897Z,20.80
2017-11-12T22:28:22.159Z,21.30
2017-11-12T22:30:50.802Z,22.30
2017-11-12T22:33:19.110Z,55.97
2017-11-12T22:35:47.338Z,26.40
2017-11-12T22:38:15.594Z,28.70
2017-11-12T22:40:43.854Z,24.13
2017-11-12T22:43:12.105Z,25.63
2017-11-12T22:45:40.406Z,28.87
2017-11-12T22:48:08.657Z,25.43
2017-11-12T22:50:36.921Z,23.37
2017-11-12T22:53:05.230Z,26.37
2017-11-12T22:55:33.861Z,22.67
2017-11-12T22:58:02.130Z,26.00
2017-11-12T23:00:30.378Z,28.40
2017-11-12T23:02:58.642Z,22.60
2017-11-12T23:05:27.320Z,29.50
2017-11-12T23:07:56.176Z,29.23
2017-11-12T23:10:24.566Z,33.10
2017-11-12T23:12:52.814Z,24.17
2017-11-12T23:15:21.073Z,25.50
2017-11-12T23:17:50.432Z,24.40
2017-11-12T23:20:19.371Z,23.37
2017-11-12T23:22:47.642Z,22.40
2017-11-12T23:25:16.017Z,30.37
2017-11-12T23:27:44.269Z,26.20
2017-11-12T23:30:13.013Z,25.80
2017-11-12T23:32:41.410Z,26.90
2017-11-12T23:35:09.668Z,26.90
2017-11-12T23:37:37.911Z,23.60
2017-11-12T23:40:07.277Z,27.37
2017-11-12T23:42:35.989Z,22.47
2017-11-12T23:45:04.348Z,25.13
2017-11-12T23:47:32.993Z,22.20
2017-11-12T23:50:01.302Z,19.07
2017-11-12T23:52:29.977Z,17.13
2017-11-12T23:54:58.232Z,15.73
2017-11-12T23:57:26.494Z,15.90
2017-11-12T23:59:54.733Z,17.70
